sensor_id;sensor_type;location;lat;lon;timestamp;pressure;altitude;pressure_sealevel;temperature;humidity
28004;BME280;15330;51.234;6.754;2023-03-01T00:01:27;102518.94;;;1.92;68.66
28004;BME280;15330;51.234;6.754;2023-03-01T00:03:53;102520.38;;;1.79;69.48
28004;BME280;15330;51.234;6.754;2023-03-01T00:06:20;102516.25;;;1.94;68.82
28004;BME280;15330;51.234;6.754;2023-03-01T00:08:46;102514.31;;;1.77;68.50
28004;BME280;15330;51.234;6.754;2023-03-01T00:13:44;102515.56;;;1.89;68.57
28004;BME280;15330;51.234;6.754;2023-03-01T00:16:13;102513.16;;;1.84;69.26
28004;BME280;15330;51.234;6.754;2023-03-01T00:18:39;102524.63;;;1.83;69.44
28004;BME280;15330;51.234;6.754;2023-03-01T00:21:05;102519.81;;;1.93;68.60
28004;BME280;15330;51.234;6.754;2023-03-01T00:23:31;102520.44;;;1.98;68.06
28004;BME280;15330;51.234;6.754;2023-03-01T00:25:56;102516.78;;;1.81;69.32
28004;BME280;15330;51.234;6.754;2023-03-01T00:28:22;102512.75;;;1.73;69.76
28004;BME280;15330;51.234;6.754;2023-03-01T00:30:47;102508.97;;;1.78;69.29
28004;BME280;15330;51.234;6.754;2023-03-01T00:33:13;102501.28;;;1.74;69.78
28004;BME280;15330;51.234;6.754;2023-03-01T00:35:38;102499.81;;;1.87;69.54
28004;BME280;15330;51.234;6.754;2023-03-01T00:38:04;102505.00;;;1.68;69.66
28004;BME280;15330;51.234;6.754;2023-03-01T00:40:32;102511.88;;;1.72;69.72
28004;BME280;15330;51.234;6.754;2023-03-01T00:42:58;102499.09;;;1.63;70.18
28004;BME280;15330;51.234;6.754;2023-03-01T00:45:24;102494.00;;;1.59;70.90
28004;BME280;15330;51.234;6.754;2023-03-01T00:47:50;102488.63;;;1.40;70.99
28004;BME280;15330;51.234;6.754;2023-03-01T00:50:16;102490.41;;;1.39;70.74
28004;BME280;15330;51.234;6.754;2023-03-01T00:52:41;102488.09;;;1.32;70.79
28004;BME280;15330;51.234;6.754;2023-03-01T00:55:07;102482.72;;;1.35;71.58
28004;BME280;15330;51.234;6.754;2023-03-01T00:57:33;102482.63;;;1.36;71.50
28004;BME280;15330;51.234;6.754;2023-03-01T00:59:58;102479.28;;;1.33;71.51
28004;BME280;15330;51.234;6.754;2023-03-01T01:02:24;102493.66;;;1.46;70.30
28004;BME280;15330;51.234;6.754;2023-03-01T01:04:50;102481.16;;;1.29;71.62
28004;BME280;15330;51.234;6.754;2023-03-01T01:07:15;102476.94;;;1.25;71.91
28004;BME280;15330;51.234;6.754;2023-03-01T01:09:40;102476.34;;;1.19;72.18
28004;BME280;15330;51.234;6.754;2023-03-01T01:12:06;102480.44;;;1.04;72.61
28004;BME280;15330;51.234;6.754;2023-03-01T01:14:32;102478.47;;;1.09;73.00
28004;BME280;15330;51.234;6.754;2023-03-01T01:16:58;102476.16;;;1.23;72.33
28004;BME280;15330;51.234;6.754;2023-03-01T01:19:23;102462.59;;;1.32;71.73
28004;BME280;15330;51.234;6.754;2023-03-01T01:21:49;102466.91;;;1.35;72.29
28004;BME280;15330;51.234;6.754;2023-03-01T01:24:15;102460.81;;;1.33;71.83
28004;BME280;15330;51.234;6.754;2023-03-01T01:26:41;102456.13;;;1.39;70.64
28004;BME280;15330;51.234;6.754;2023-03-01T01:29:07;102443.84;;;1.18;72.27
28004;BME280;15330;51.234;6.754;2023-03-01T01:31:34;102447.47;;;0.94;72.86
28004;BME280;15330;51.234;6.754;2023-03-01T01:34:01;102446.00;;;1.08;72.35
28004;BME280;15330;51.234;6.754;2023-03-01T01:36:27;102435.63;;;1.04;72.09
28004;BME280;15330;51.234;6.754;2023-03-01T01:38:52;102437.78;;;1.16;71.53
28004;BME280;15330;51.234;6.754;2023-03-01T01:41:19;102432.31;;;1.21;71.61
28004;BME280;15330;51.234;6.754;2023-03-01T01:43:48;102430.75;;;0.95;72.14
28004;BME280;15330;51.234;6.754;2023-03-01T01:48:53;102431.72;;;1.14;72.50
28004;BME280;15330;51.234;6.754;2023-03-01T01:51:25;102419.47;;;1.13;71.95
28004;BME280;15330;51.234;6.754;2023-03-01T01:53:58;102404.38;;;1.17;72.59
28004;BME280;15330;51.234;6.754;2023-03-01T01:56:25;102403.28;;;1.22;72.38
28004;BME280;15330;51.234;6.754;2023-03-01T01:58:52;102407.47;;;1.26;71.61
28004;BME280;15330;51.234;6.754;2023-03-01T02:01:17;102410.56;;;1.16;72.59
28004;BME280;15330;51.234;6.754;2023-03-01T02:03:44;102408.94;;;0.91;73.71
28004;BME280;15330;51.234;6.754;2023-03-01T02:06:19;102414.41;;;0.87;73.55
28004;BME280;15330;51.234;6.754;2023-03-01T02:08:47;102412.63;;;0.87;73.66
28004;BME280;15330;51.234;6.754;2023-03-01T02:11:14;102407.63;;;0.81;73.71
28004;BME280;15330;51.234;6.754;2023-03-01T02:13:40;102409.66;;;0.95;73.89
28004;BME280;15330;51.234;6.754;2023-03-01T02:16:11;102415.13;;;0.90;73.93
28004;BME280;15330;51.234;6.754;2023-03-01T02:18:39;102414.28;;;0.90;74.38
28004;BME280;15330;51.234;6.754;2023-03-01T02:21:10;102426.44;;;0.49;76.26
28004;BME280;15330;51.234;6.754;2023-03-01T02:23:40;102423.06;;;0.45;76.31
28004;BME280;15330;51.234;6.754;2023-03-01T02:26:16;102403.88;;;0.42;76.43
28004;BME280;15330;51.234;6.754;2023-03-01T02:28:44;102421.50;;;0.41;76.77
28004;BME280;15330;51.234;6.754;2023-03-01T02:31:11;102412.03;;;0.35;76.52
28004;BME280;15330;51.234;6.754;2023-03-01T02:33:58;102417.63;;;0.50;76.40
28004;BME280;15330;51.234;6.754;2023-03-01T02:36:26;102421.78;;;0.55;76.46
28004;BME280;15330;51.234;6.754;2023-03-01T02:38:57;102417.72;;;0.70;75.87
28004;BME280;15330;51.234;6.754;2023-03-01T02:41:24;102402.50;;;0.55;75.83
28004;BME280;15330;51.234;6.754;2023-03-01T02:43:51;102413.50;;;0.43;76.44
28004;BME280;15330;51.234;6.754;2023-03-01T02:46:20;102396.16;;;0.60;76.24
28004;BME280;15330;51.234;6.754;2023-03-01T02:48:54;102394.94;;;0.69;76.13
28004;BME280;15330;51.234;6.754;2023-03-01T02:51:37;102396.69;;;0.68;75.27
28004;BME280;15330;51.234;6.754;2023-03-01T02:54:12;102405.34;;;0.50;75.63
28004;BME280;15330;51.234;6.754;2023-03-01T02:56:38;102398.78;;;0.60;75.42
28004;BME280;15330;51.234;6.754;2023-03-01T02:59:04;102398.66;;;0.63;74.96
28004;BME280;15330;51.234;6.754;2023-03-01T03:01:30;102395.72;;;0.71;74.80
28004;BME280;15330;51.234;6.754;2023-03-01T03:04:03;102401.47;;;0.81;74.46
28004;BME280;15330;51.234;6.754;2023-03-01T03:06:28;102394.06;;;0.68;74.91
28004;BME280;15330;51.234;6.754;2023-03-01T03:08:54;102398.84;;;0.59;75.25
28004;BME280;15330;51.234;6.754;2023-03-01T03:11:19;102396.94;;;0.62;75.34
28004;BME280;15330;51.234;6.754;2023-03-01T03:13:46;102395.72;;;0.49;75.56
28004;BME280;15330;51.234;6.754;2023-03-01T03:16:13;102384.06;;;0.55;75.91
28004;BME280;15330;51.234;6.754;2023-03-01T03:18:39;102397.78;;;0.63;75.94
28004;BME280;15330;51.234;6.754;2023-03-01T03:21:08;102394.97;;;0.67;75.45
28004;BME280;15330;51.234;6.754;2023-03-01T03:23:35;102385.25;;;0.48;76.15
28004;BME280;15330;51.234;6.754;2023-03-01T03:26:02;102380.59;;;0.54;75.34
28004;BME280;15330;51.234;6.754;2023-03-01T03:28:29;102360.19;;;0.38;75.64
28004;BME280;15330;51.234;6.754;2023-03-01T03:30:55;102381.81;;;0.46;76.46
28004;BME280;15330;51.234;6.754;2023-03-01T03:33:21;102384.97;;;0.32;76.56
28004;BME280;15330;51.234;6.754;2023-03-01T03:35:48;102387.22;;;0.19;77.38
28004;BME280;15330;51.234;6.754;2023-03-01T03:38:16;102392.94;;;0.30;77.13
28004;BME280;15330;51.234;6.754;2023-03-01T03:41:03;102371.81;;;0.32;76.82
28004;BME280;15330;51.234;6.754;2023-03-01T03:43:31;102381.31;;;0.36;76.53
28004;BME280;15330;51.234;6.754;2023-03-01T03:45:57;102371.63;;;0.36;76.59
28004;BME280;15330;51.234;6.754;2023-03-01T03:48:22;102366.31;;;0.38;76.34
28004;BME280;15330;51.234;6.754;2023-03-01T03:50:50;102370.25;;;0.50;75.79
28004;BME280;15330;51.234;6.754;2023-03-01T03:53:16;102373.16;;;0.42;75.93
28004;BME280;15330;51.234;6.754;2023-03-01T03:55:42;102376.97;;;0.35;75.82
28004;BME280;15330;51.234;6.754;2023-03-01T03:58:10;102372.75;;;0.31;76.88
28004;BME280;15330;51.234;6.754;2023-03-01T04:00:40;102373.94;;;0.22;77.14
28004;BME280;15330;51.234;6.754;2023-03-01T04:03:06;102374.06;;;0.19;77.02
28004;BME280;15330;51.234;6.754;2023-03-01T04:05:32;102363.16;;;0.07;77.12
28004;BME280;15330;51.234;6.754;2023-03-01T04:07:58;102363.38;;;0.00;77.77
28004;BME280;15330;51.234;6.754;2023-03-01T04:10:27;102359.81;;;0.02;77.56
28004;BME280;15330;51.234;6.754;2023-03-01T04:12:53;102355.16;;;0.10;77.18
28004;BME280;15330;51.234;6.754;2023-03-01T04:15:22;102345.34;;;0.13;77.50
28004;BME280;15330;51.234;6.754;2023-03-01T04:17:50;102341.63;;;0.19;77.20
28004;BME280;15330;51.234;6.754;2023-03-01T04:20:19;102331.13;;;0.19;76.63
28004;BME280;15330;51.234;6.754;2023-03-01T04:22:59;102343.53;;;0.15;76.54
28004;BME280;15330;51.234;6.754;2023-03-01T04:25:46;102342.78;;;0.12;77.24
28004;BME280;15330;51.234;6.754;2023-03-01T04:28:14;102338.22;;;0.17;76.64
28004;BME280;15330;51.234;6.754;2023-03-01T04:30:40;102342.50;;;0.19;77.10
28004;BME280;15330;51.234;6.754;2023-03-01T04:33:08;102332.19;;;0.13;76.91
28004;BME280;15330;51.234;6.754;2023-03-01T04:35:35;102342.78;;;0.12;76.90
28004;BME280;15330;51.234;6.754;2023-03-01T04:38:01;102348.94;;;0.11;76.93
28004;BME280;15330;51.234;6.754;2023-03-01T04:40:26;102349.09;;;0.08;77.16
28004;BME280;15330;51.234;6.754;2023-03-01T04:42:52;102354.09;;;0.14;76.66
28004;BME280;15330;51.234;6.754;2023-03-01T04:45:17;102342.09;;;0.07;76.68
28004;BME280;15330;51.234;6.754;2023-03-01T04:47:43;102344.63;;;0.10;76.66
28004;BME280;15330;51.234;6.754;2023-03-01T04:50:13;102337.88;;;0.03;77.03
28004;BME280;15330;51.234;6.754;2023-03-01T04:52:39;102337.06;;;0.00;77.28
28004;BME280;15330;51.234;6.754;2023-03-01T04:55:04;102337.72;;;0.07;76.76
28004;BME280;15330;51.234;6.754;2023-03-01T04:57:30;102337.59;;;-0.13;77.42
28004;BME280;15330;51.234;6.754;2023-03-01T04:59:56;102335.59;;;-0.07;77.36
28004;BME280;15330;51.234;6.754;2023-03-01T05:02:21;102337.31;;;-0.06;77.16
28004;BME280;15330;51.234;6.754;2023-03-01T05:04:47;102336.44;;;-0.06;77.19
28004;BME280;15330;51.234;6.754;2023-03-01T05:07:12;102331.53;;;-0.15;76.98
28004;BME280;15330;51.234;6.754;2023-03-01T05:09:47;102345.50;;;-0.13;77.46
28004;BME280;15330;51.234;6.754;2023-03-01T05:12:14;102334.81;;;-0.32;77.89
28004;BME280;15330;51.234;6.754;2023-03-01T05:14:40;102334.84;;;-0.10;77.61
28004;BME280;15330;51.234;6.754;2023-03-01T05:17:07;102328.81;;;-0.12;77.51
28004;BME280;15330;51.234;6.754;2023-03-01T05:19:32;102328.16;;;-0.19;77.72
28004;BME280;15330;51.234;6.754;2023-03-01T05:21:58;102328.97;;;-0.17;77.54
28004;BME280;15330;51.234;6.754;2023-03-01T05:24:31;102324.66;;;-0.19;78.34
28004;BME280;15330;51.234;6.754;2023-03-01T05:26:57;102325.41;;;-0.16;77.48
28004;BME280;15330;51.234;6.754;2023-03-01T05:29:24;102326.56;;;-0.23;78.68
28004;BME280;15330;51.234;6.754;2023-03-01T05:31:55;102320.66;;;-0.06;77.39
28004;BME280;15330;51.234;6.754;2023-03-01T05:34:29;102325.97;;;-0.08;78.59
28004;BME280;15330;51.234;6.754;2023-03-01T05:36:54;102316.97;;;-0.01;77.94
28004;BME280;15330;51.234;6.754;2023-03-01T05:39:21;102318.78;;;-0.03;77.45
28004;BME280;15330;51.234;6.754;2023-03-01T05:41:48;102317.19;;;-0.30;78.76
28004;BME280;15330;51.234;6.754;2023-03-01T05:44:13;102317.41;;;-0.13;78.79
28004;BME280;15330;51.234;6.754;2023-03-01T05:46:38;102312.63;;;-0.25;80.51
28004;BME280;15330;51.234;6.754;2023-03-01T05:49:04;102306.13;;;0.07;77.74
28004;BME280;15330;51.234;6.754;2023-03-01T05:51:30;102308.22;;;-0.24;78.51
28004;BME280;15330;51.234;6.754;2023-03-01T05:53:56;102298.00;;;-0.32;79.27
28004;BME280;15330;51.234;6.754;2023-03-01T05:56:21;102302.88;;;0.00;77.38
28004;BME280;15330;51.234;6.754;2023-03-01T05:58:48;102304.38;;;-0.16;77.12
28004;BME280;15330;51.234;6.754;2023-03-01T06:01:14;102317.63;;;-0.19;77.30
28004;BME280;15330;51.234;6.754;2023-03-01T06:03:40;102316.41;;;-0.32;77.14
28004;BME280;15330;51.234;6.754;2023-03-01T06:06:05;102323.34;;;-0.31;78.24
28004;BME280;15330;51.234;6.754;2023-03-01T06:08:31;102311.66;;;-0.22;77.25
28004;BME280;15330;51.234;6.754;2023-03-01T06:10:56;102309.06;;;-0.01;78.33
28004;BME280;15330;51.234;6.754;2023-03-01T06:13:22;102309.28;;;-0.07;79.85
28004;BME280;15330;51.234;6.754;2023-03-01T06:15:48;102308.22;;;-0.01;78.19
28004;BME280;15330;51.234;6.754;2023-03-01T06:18:14;102304.78;;;-0.03;76.60
28004;BME280;15330;51.234;6.754;2023-03-01T06:20:39;102315.19;;;0.22;76.40
28004;BME280;15330;51.234;6.754;2023-03-01T06:23:04;102314.72;;;0.34;76.11
28004;BME280;15330;51.234;6.754;2023-03-01T06:25:30;102309.88;;;0.23;75.82
28004;BME280;15330;51.234;6.754;2023-03-01T06:27:56;102306.38;;;0.23;76.03
28004;BME280;15330;51.234;6.754;2023-03-01T06:30:22;102310.56;;;0.50;75.30
28004;BME280;15330;51.234;6.754;2023-03-01T06:32:48;102309.31;;;0.59;75.24
28004;BME280;15330;51.234;6.754;2023-03-01T06:35:15;102309.31;;;0.37;74.97
28004;BME280;15330;51.234;6.754;2023-03-01T06:37:43;102308.69;;;1.15;75.47
28004;BME280;15330;51.234;6.754;2023-03-01T06:40:09;102297.78;;;1.81;74.24
28004;BME280;15330;51.234;6.754;2023-03-01T06:42:40;102307.72;;;1.95;72.32
28004;BME280;15330;51.234;6.754;2023-03-01T06:45:06;102309.09;;;1.26;72.12
28004;BME280;15330;51.234;6.754;2023-03-01T06:47:33;102302.66;;;0.92;73.42
28004;BME280;15330;51.234;6.754;2023-03-01T06:49:59;102306.75;;;0.99;74.37
28004;BME280;15330;51.234;6.754;2023-03-01T06:52:25;102312.06;;;1.18;72.22
28004;BME280;15330;51.234;6.754;2023-03-01T06:54:50;102297.16;;;1.76;70.68
28004;BME280;15330;51.234;6.754;2023-03-01T06:57:16;102302.22;;;1.81;69.31
28004;BME280;15330;51.234;6.754;2023-03-01T06:59:41;102300.00;;;2.09;68.48
28004;BME280;15330;51.234;6.754;2023-03-01T07:02:12;102301.59;;;2.31;67.53
28004;BME280;15330;51.234;6.754;2023-03-01T07:04:38;102306.16;;;2.99;64.88
28004;BME280;15330;51.234;6.754;2023-03-01T07:07:03;102298.88;;;3.86;62.65
28004;BME280;15330;51.234;6.754;2023-03-01T07:09:29;102296.25;;;4.33;60.31
28004;BME280;15330;51.234;6.754;2023-03-01T07:11:56;102301.19;;;5.14;57.08
28004;BME280;15330;51.234;6.754;2023-03-01T07:14:21;102298.44;;;5.16;56.23
28004;BME280;15330;51.234;6.754;2023-03-01T07:16:50;102296.00;;;5.84;55.32
28004;BME280;15330;51.234;6.754;2023-03-01T07:19:15;102291.91;;;6.07;54.03
28004;BME280;15330;51.234;6.754;2023-03-01T07:21:41;102283.88;;;5.51;55.34
28004;BME280;15330;51.234;6.754;2023-03-01T07:24:07;102261.41;;;7.31;51.48
28004;BME280;15330;51.234;6.754;2023-03-01T07:26:33;102283.31;;;7.85;49.01
28004;BME280;15330;51.234;6.754;2023-03-01T07:28:59;102278.91;;;7.97;49.06
28004;BME280;15330;51.234;6.754;2023-03-01T07:31:25;102282.75;;;7.80;48.71
28004;BME280;15330;51.234;6.754;2023-03-01T07:33:53;102280.72;;;8.20;49.22
28004;BME280;15330;51.234;6.754;2023-03-01T07:36:18;102273.78;;;8.78;47.01
28004;BME280;15330;51.234;6.754;2023-03-01T07:38:44;102271.41;;;9.43;45.48
28004;BME280;15330;51.234;6.754;2023-03-01T07:41:09;102263.22;;;10.01;45.65
28004;BME280;15330;51.234;6.754;2023-03-01T07:43:34;102272.69;;;10.16;44.53
28004;BME280;15330;51.234;6.754;2023-03-01T07:46:01;102272.88;;;10.78;44.42
28004;BME280;15330;51.234;6.754;2023-03-01T07:48:27;102272.19;;;10.65;42.23
28004;BME280;15330;51.234;6.754;2023-03-01T07:50:53;102276.09;;;10.61;42.08
28004;BME280;15330;51.234;6.754;2023-03-01T07:53:18;102279.78;;;11.01;42.08
28004;BME280;15330;51.234;6.754;2023-03-01T07:55:44;102275.56;;;10.99;41.03
28004;BME280;15330;51.234;6.754;2023-03-01T07:58:09;102272.34;;;11.05;40.71
28004;BME280;15330;51.234;6.754;2023-03-01T08:00:34;102287.19;;;9.80;42.81
28004;BME280;15330;51.234;6.754;2023-03-01T08:03:00;102283.31;;;11.23;39.34
28004;BME280;15330;51.234;6.754;2023-03-01T08:05:26;102277.78;;;11.66;38.52
28004;BME280;15330;51.234;6.754;2023-03-01T08:07:52;102285.78;;;12.36;37.94
28004;BME280;15330;51.234;6.754;2023-03-01T08:10:18;102284.34;;;12.23;37.39
28004;BME280;15330;51.234;6.754;2023-03-01T08:12:44;102284.53;;;12.79;36.50
28004;BME280;15330;51.234;6.754;2023-03-01T08:15:09;102283.28;;;12.83;36.90
28004;BME280;15330;51.234;6.754;2023-03-01T08:17:35;102281.13;;;12.58;37.39
28004;BME280;15330;51.234;6.754;2023-03-01T08:20:00;102271.81;;;12.42;36.89
28004;BME280;15330;51.234;6.754;2023-03-01T08:22:26;102284.03;;;13.51;35.51
28004;BME280;15330;51.234;6.754;2023-03-01T08:24:51;102268.47;;;14.09;34.25
28004;BME280;15330;51.234;6.754;2023-03-01T08:27:17;102276.88;;;13.13;35.20
28004;BME280;15330;51.234;6.754;2023-03-01T08:29:42;102274.41;;;13.58;34.81
28004;BME280;15330;51.234;6.754;2023-03-01T08:32:08;102280.00;;;13.28;34.17
28004;BME280;15330;51.234;6.754;2023-03-01T08:34:33;102271.94;;;13.65;34.54
28004;BME280;15330;51.234;6.754;2023-03-01T08:37:01;102269.91;;;15.02;32.70
28004;BME280;15330;51.234;6.754;2023-03-01T08:39:26;102269.66;;;15.13;31.91
28004;BME280;15330;51.234;6.754;2023-03-01T08:41:52;102270.97;;;12.52;34.16
28004;BME280;15330;51.234;6.754;2023-03-01T08:44:17;102275.63;;;12.40;33.83
28004;BME280;15330;51.234;6.754;2023-03-01T08:46:43;102268.69;;;10.10;38.07
28004;BME280;15330;51.234;6.754;2023-03-01T08:49:15;102271.28;;;13.53;34.01
28004;BME280;15330;51.234;6.754;2023-03-01T08:51:42;102267.88;;;13.51;33.59
28004;BME280;15330;51.234;6.754;2023-03-01T08:54:16;102264.53;;;15.02;32.63
28004;BME280;15330;51.234;6.754;2023-03-01T08:56:42;102247.63;;;15.43;31.90
28004;BME280;15330;51.234;6.754;2023-03-01T08:59:08;102259.88;;;15.98;31.06
28004;BME280;15330;51.234;6.754;2023-03-01T09:01:34;102266.19;;;12.45;34.09
28004;BME280;15330;51.234;6.754;2023-03-01T09:03:59;102263.03;;;13.64;34.28
28004;BME280;15330;51.234;6.754;2023-03-01T09:06:25;102262.00;;;14.65;32.41
28004;BME280;15330;51.234;6.754;2023-03-01T09:08:50;102255.22;;;12.08;34.86
28004;BME280;15330;51.234;6.754;2023-03-01T09:11:19;102256.63;;;13.38;33.75
28004;BME280;15330;51.234;6.754;2023-03-01T09:13:46;102248.19;;;15.29;31.52
28004;BME280;15330;51.234;6.754;2023-03-01T09:16:13;102254.53;;;15.20;30.74
28004;BME280;15330;51.234;6.754;2023-03-01T09:18:39;102260.50;;;14.35;30.85
28004;BME280;15330;51.234;6.754;2023-03-01T09:21:10;102254.16;;;14.89;30.91
28004;BME280;15330;51.234;6.754;2023-03-01T09:23:38;102247.81;;;16.34;29.54
28004;BME280;15330;51.234;6.754;2023-03-01T09:26:11;102252.22;;;17.96;27.30
28004;BME280;15330;51.234;6.754;2023-03-01T09:28:37;102250.53;;;16.42;27.23
28004;BME280;15330;51.234;6.754;2023-03-01T09:31:04;102243.91;;;18.28;25.88
28004;BME280;15330;51.234;6.754;2023-03-01T09:33:31;102241.19;;;19.64;24.67
28004;BME280;15330;51.234;6.754;2023-03-01T09:35:58;102240.59;;;20.98;22.52
28004;BME280;15330;51.234;6.754;2023-03-01T09:38:24;102225.94;;;19.77;23.82
28004;BME280;15330;51.234;6.754;2023-03-01T09:40:49;102219.59;;;21.41;21.16
28004;BME280;15330;51.234;6.754;2023-03-01T09:43:33;102232.53;;;16.75;25.00
28004;BME280;15330;51.234;6.754;2023-03-01T09:46:09;102228.44;;;20.44;21.99
28004;BME280;15330;51.234;6.754;2023-03-01T09:48:46;102225.34;;;21.24;20.80
28004;BME280;15330;51.234;6.754;2023-03-01T09:51:34;102213.09;;;22.50;19.98
28004;BME280;15330;51.234;6.754;2023-03-01T09:54:04;102221.00;;;21.09;21.16
28004;BME280;15330;51.234;6.754;2023-03-01T09:56:37;102210.81;;;20.26;21.68
28004;BME280;15330;51.234;6.754;2023-03-01T10:01:34;102210.75;;;20.76;21.63
28004;BME280;15330;51.234;6.754;2023-03-01T10:06:28;102208.78;;;21.60;21.60
28004;BME280;15330;51.234;6.754;2023-03-01T10:09:16;102207.44;;;23.24;19.29
28004;BME280;15330;51.234;6.754;2023-03-01T10:11:45;102201.22;;;24.51;18.22
28004;BME280;15330;51.234;6.754;2023-03-01T10:16:50;102205.59;;;22.98;19.69
28004;BME280;15330;51.234;6.754;2023-03-01T10:19:33;102188.06;;;23.46;18.28
28004;BME280;15330;51.234;6.754;2023-03-01T10:22:14;102188.75;;;22.36;20.14
28004;BME280;15330;51.234;6.754;2023-03-01T10:24:41;102183.44;;;23.46;19.00
28004;BME280;15330;51.234;6.754;2023-03-01T10:30:13;102180.16;;;19.45;22.50
28004;BME280;15330;51.234;6.754;2023-03-01T10:32:43;102174.22;;;21.54;20.48
28004;BME280;15330;51.234;6.754;2023-03-01T10:35:23;102174.44;;;22.01;19.61
28004;BME280;15330;51.234;6.754;2023-03-01T10:38:06;102173.31;;;21.95;19.95
28004;BME280;15330;51.234;6.754;2023-03-01T10:40:33;102173.81;;;22.12;20.65
28004;BME280;15330;51.234;6.754;2023-03-01T10:43:02;102170.16;;;20.54;20.89
28004;BME280;15330;51.234;6.754;2023-03-01T10:50:43;102170.50;;;22.56;19.00
28004;BME280;15330;51.234;6.754;2023-03-01T10:53:24;102165.59;;;20.18;21.70
28004;BME280;15330;51.234;6.754;2023-03-01T10:58:28;102157.28;;;21.59;20.70
28004;BME280;15330;51.234;6.754;2023-03-01T11:00:58;102154.72;;;22.12;19.52
28004;BME280;15330;51.234;6.754;2023-03-01T11:03:36;102143.09;;;21.83;20.09
28004;BME280;15330;51.234;6.754;2023-03-01T11:08:39;102139.84;;;22.08;20.12
28004;BME280;15330;51.234;6.754;2023-03-01T11:11:30;102151.28;;;21.01;19.79
28004;BME280;15330;51.234;6.754;2023-03-01T11:14:18;102126.03;;;22.16;20.01
28004;BME280;15330;51.234;6.754;2023-03-01T11:16:48;102124.41;;;21.19;20.31
28004;BME280;15330;51.234;6.754;2023-03-01T11:19:17;102126.75;;;20.67;19.56
28004;BME280;15330;51.234;6.754;2023-03-01T11:24:32;102119.84;;;21.27;20.11
28004;BME280;15330;51.234;6.754;2023-03-01T11:27:02;102114.09;;;19.38;22.19
28004;BME280;15330;51.234;6.754;2023-03-01T11:29:44;102109.03;;;22.47;18.76
28004;BME280;15330;51.234;6.754;2023-03-01T11:32:13;102101.59;;;21.75;19.76
28004;BME280;15330;51.234;6.754;2023-03-01T11:34:47;102105.25;;;20.44;20.94
28004;BME280;15330;51.234;6.754;2023-03-01T11:40:26;102096.59;;;20.62;21.26
28004;BME280;15330;51.234;6.754;2023-03-01T11:49:04;102092.47;;;17.34;24.88
28004;BME280;15330;51.234;6.754;2023-03-01T12:10:36;102093.75;;;12.24;32.34
28004;BME280;15330;51.234;6.754;2023-03-01T12:16:00;102078.72;;;12.87;31.20
28004;BME280;15330;51.234;6.754;2023-03-01T12:18:52;102081.00;;;12.45;31.13
28004;BME280;15330;51.234;6.754;2023-03-01T12:24:10;102066.97;;;12.52;31.68
28004;BME280;15330;51.234;6.754;2023-03-01T12:27:26;102058.72;;;12.72;31.36
28004;BME280;15330;51.234;6.754;2023-03-01T12:32:49;102060.75;;;11.26;34.88
28004;BME280;15330;51.234;6.754;2023-03-01T12:38:45;102053.00;;;10.92;35.53
28004;BME280;15330;51.234;6.754;2023-03-01T12:43:47;102052.06;;;10.21;36.66
28004;BME280;15330;51.234;6.754;2023-03-01T12:51:40;102036.97;;;11.61;34.43
28004;BME280;15330;51.234;6.754;2023-03-01T12:54:34;102030.44;;;11.35;34.88
28004;BME280;15330;51.234;6.754;2023-03-01T13:02:45;102034.56;;;9.44;36.56
28004;BME280;15330;51.234;6.754;2023-03-01T13:05:37;102037.81;;;9.79;36.66
28004;BME280;15330;51.234;6.754;2023-03-01T13:08:20;102027.41;;;10.18;36.59
28004;BME280;15330;51.234;6.754;2023-03-01T13:11:04;102036.28;;;9.66;37.23
28004;BME280;15330;51.234;6.754;2023-03-01T13:13:30;102030.44;;;9.72;37.18
28004;BME280;15330;51.234;6.754;2023-03-01T13:15:57;102022.38;;;10.04;36.99
28004;BME280;15330;51.234;6.754;2023-03-01T13:18:42;102021.66;;;9.81;36.19
28004;BME280;15330;51.234;6.754;2023-03-01T13:21:08;102015.28;;;10.35;35.56
28004;BME280;15330;51.234;6.754;2023-03-01T13:23:36;102012.25;;;9.86;35.47
28004;BME280;15330;51.234;6.754;2023-03-01T13:39:00;101996.50;;;9.83;37.16
28004;BME280;15330;51.234;6.754;2023-03-01T13:44:13;101986.00;;;10.33;35.24
28004;BME280;15330;51.234;6.754;2023-03-01T13:46:46;101994.06;;;9.80;36.31
28004;BME280;15330;51.234;6.754;2023-03-01T13:49:20;101984.97;;;10.24;35.47
28004;BME280;15330;51.234;6.754;2023-03-01T13:51:47;101992.19;;;9.39;37.18
28004;BME280;15330;51.234;6.754;2023-03-01T13:54:15;101982.25;;;10.45;35.64
28004;BME280;15330;51.234;6.754;2023-03-01T13:56:41;101987.94;;;10.10;36.22
28004;BME280;15330;51.234;6.754;2023-03-01T13:59:16;101987.44;;;9.43;37.85
28004;BME280;15330;51.234;6.754;2023-03-01T14:01:42;101969.91;;;10.23;37.08
28004;BME280;15330;51.234;6.754;2023-03-01T14:04:27;101981.69;;;9.79;37.24
28004;BME280;15330;51.234;6.754;2023-03-01T14:07:16;101972.59;;;9.50;37.62
28004;BME280;15330;51.234;6.754;2023-03-01T14:09:45;101969.91;;;10.03;37.30
28004;BME280;15330;51.234;6.754;2023-03-01T14:14:44;101960.69;;;10.16;37.13
28004;BME280;15330;51.234;6.754;2023-03-01T14:19:57;101961.31;;;9.46;38.01
28004;BME280;15330;51.234;6.754;2023-03-01T14:22:28;101957.56;;;10.32;37.83
28004;BME280;15330;51.234;6.754;2023-03-01T14:25:00;101949.03;;;9.23;38.77
28004;BME280;15330;51.234;6.754;2023-03-01T14:27:30;101945.72;;;10.04;38.65
28004;BME280;15330;51.234;6.754;2023-03-01T14:29:59;101951.31;;;9.28;40.09
28004;BME280;15330;51.234;6.754;2023-03-01T14:32:27;101946.00;;;8.73;39.66
28004;BME280;15330;51.234;6.754;2023-03-01T14:34:54;101937.00;;;8.86;40.33
28004;BME280;15330;51.234;6.754;2023-03-01T14:37:41;101944.75;;;9.64;38.55
28004;BME280;15330;51.234;6.754;2023-03-01T14:40:37;101933.25;;;9.93;39.36
28004;BME280;15330;51.234;6.754;2023-03-01T14:43:10;101918.78;;;9.34;38.75
28004;BME280;15330;51.234;6.754;2023-03-01T14:45:36;101923.44;;;9.52;39.45
28004;BME280;15330;51.234;6.754;2023-03-01T14:48:04;101923.19;;;8.92;40.20